Briefing drone pour Fourchambault

Rechercher une autre localisation

Conditions de vol :


Nous sommes le : Jeudi 01 décembre 2022
Il est 16:51 UTC (17:51 LT)

Lever de soleil : 06:46 UTC (07:46 LT)
Coucher de soleil : 16:26 UTC (17:26 LT)

Météo

L'essentiel des conditions de vol

VIGILANCE MÉTÉO FRANCE - Nièvre (58)
Pas de vigilances particulieres
METAR de LFQG
LFQG 011630Z AUTO 01005KT 340V040 9999 -DZ BKN015 OVC022 07/05 Q1022

Date d'émission: 01/12/2022
Heure d'émission: 16:30 UTC
Vent: 010° (variable du 340° au 040°) pour 5 KT (9 km/h)
Visibilité horizontale: > 10 km
Plafond :
- Nuages morcelés à 1500ft (457m)
- Couvert à 2200ft (671m)
Température: 7 °C
Point de rosée: 5 °C
Humidité: 87%
Pression (QNH): 1022 hPa
Conditions: Faible Bruine
Prévision 24h pour Nevers (5 km)
Vent : 40° pour 2 KT (6 km/h)
Temperature Maxi: 5 °C
Temperature Min: 5 °C
Humidité : 69%
Condition : Couvert



Warning: count(): Parameter must be an array or an object that implements Countable in /homepages/6/d509196549/htdocs/droneoxygene/briefing.php on line 743
WEBCAM POUR FOURCHAMBAULT

Réglementation

Voler en sécurité

CARTES AERONAUTIQUE 1/500.000
CARTE AZBA (Reseau basse altitude)
CARTES VAC (LFQG)
SUP AIP




Chargement des AIP...
NOTAM (FOURCHAMBAULT + Terrain à proximité / FIR )




Chargement des NOTAMS...
CONTACT PREFECTURE 58


Avertissement : Les données mises à disposition sont indicatives. Oxygène Drone ne pourra être tenu responsable de dégâts causés aux biens et aux personnes.